YLLC weather

Lilla Creek Airport
Northern Territory, Australia

Public forecast

Using degrees Celsius for public forecast. Weather courtesy of forecast.io.

METAR (pilot weather report)

Closest report is Alice Springs Airport, 105.8 nm (196.0 km) N. Retrieved 2019/02/17 22:00 UTC (16 minutes ago):

YBAS 172200Z AUTO 27004KT 6000 // NCD 22/M07 Q1012 RF00.0/000.0

TAF (pilot weather forecast)

Closest forecast is Alice Springs Airport, 105.8 nm (196.0 km) N. Retrieved 2019/02/17 18:00 UTC (4 hours ago):

TAF YBAS 171720Z 1718/1818 30005KT CAVOK FM180000 16012KT CAVOK FM181000 12005KT CAVOK